Time,TemperatureF,DewpointF,PressureIn,WindDirection,WindDirectionDegrees,WindSpeedMPH,WindSpeedGustMPH,Humidity,HourlyPrecipIn,Conditions,Clouds,dailyrainin,SoftwareType,DateUTC
2013-01-16 00:03:00,36.0,36.0,30.07,SSE,163,4.0,8.0,99,0.06,,,2.18,,2013-01-16 05:03:00,
2013-01-16 00:12:00,36.0,36.0,30.07,SSE,163,4.0,8.0,99,0.06,,,2.18,,2013-01-16 05:12:00,
2013-01-16 00:22:00,36.0,36.0,30.07,SE,144,3.0,7.0,99,0.06,,,2.19,,2013-01-16 05:22:00,
2013-01-16 00:32:00,36.0,36.0,30.08,SSE,165,2.0,6.0,99,0.04,,,2.14,,2013-01-16 05:32:00,
2013-01-16 00:42:00,36.0,36.0,30.08,SSE,165,2.0,6.0,99,0.04,,,2.14,,2013-01-16 05:42:00,
2013-01-16 00:53:00,36.0,36.0,30.07,SSE,159,3.0,8.0,99,0.03,,,2.11,,2013-01-16 05:53:00,
2013-01-16 01:02:00,36.0,36.0,30.06,SE,143,3.0,7.0,99,0.02,,,2.09,,2013-01-16 06:02:00,
2013-01-16 01:12:00,36.0,36.0,30.06,SE,143,3.0,7.0,99,0.02,,,2.09,,2013-01-16 06:12:00,
2013-01-16 01:22:00,36.0,35.0,30.06,SSE,160,2.0,7.0,98,0.01,,,2.07,,2013-01-16 06:22:00,
2013-01-16 01:32:00,36.0,35.0,30.06,SSE,159,2.0,5.0,98,0.01,,,2.06,,2013-01-16 06:32:00,
2013-01-16 01:43:00,36.0,35.0,30.06,SSE,159,2.0,5.0,98,0.01,,,2.06,,2013-01-16 06:43:00,
2013-01-16 01:53:00,36.0,35.0,30.06,SSE,157,3.0,3.0,98,0.00,,,2.04,,2013-01-16 06:53:00,
2013-01-16 02:02:00,36.0,35.0,30.06,SSE,150,0.0,0.0,98,0.01,,,2.01,,2013-01-16 07:02:00,
2013-01-16 02:12:00,36.0,35.0,30.06,SSE,150,0.0,0.0,98,0.01,,,2.01,,2013-01-16 07:12:00,
2013-01-16 02:22:00,36.0,35.0,30.08,SSE,165,0.0,5.0,98,0.03,,,2.00,,2013-01-16 07:22:00,
2013-01-16 02:33:00,36.0,35.0,30.07,South,181,0.0,6.0,98,0.07,,,2.02,,2013-01-16 07:33:00,
2013-01-16 02:42:00,36.0,35.0,30.07,South,181,0.0,6.0,98,0.07,,,2.02,,2013-01-16 07:42:00,
2013-01-16 02:52:00,36.0,36.0,30.06,SSE,167,5.0,7.0,99,0.07,,,2.00,,2013-01-16 07:52:00,
2013-01-16 03:02:00,36.0,36.0,30.05,South,170,4.0,7.0,99,0.07,,,1.98,,2013-01-16 08:02:00,
2013-01-16 03:12:00,36.0,36.0,30.05,South,170,4.0,7.0,99,0.07,,,1.98,,2013-01-16 08:12:00,
2013-01-16 03:22:00,35.0,35.0,30.03,SSE,156,5.0,8.0,99,0.05,,,1.96,,2013-01-16 08:22:00,
2013-01-16 03:32:00,36.0,36.0,30.03,South,176,3.0,8.0,100,0.01,,,1.95,,2013-01-16 08:32:00,
2013-01-16 03:42:00,36.0,36.0,30.03,South,176,3.0,8.0,100,0.01,,,1.95,,2013-01-16 08:42:00,
2013-01-16 03:53:00,36.0,36.0,30.03,South,179,5.0,7.0,100,0.02,,,1.94,,2013-01-16 08:53:00,
2013-01-16 04:02:00,36.0,36.0,30.02,SSE,164,4.0,8.0,100,0.01,,,1.92,,2013-01-16 09:02:00,
2013-01-16 04:12:00,36.0,36.0,30.02,SSE,164,4.0,8.0,100,0.01,,,1.92,,2013-01-16 09:12:00,
2013-01-16 04:22:00,35.0,35.0,30.01,South,191,3.0,8.0,100,0.01,,,1.90,,2013-01-16 09:22:00,
2013-01-16 04:32:00,35.0,35.0,30.00,SSE,162,4.0,7.0,100,0.01,,,1.89,,2013-01-16 09:32:00,
2013-01-16 04:42:00,35.0,35.0,30.00,SSE,162,4.0,7.0,100,0.01,,,1.89,,2013-01-16 09:42:00,
2013-01-16 04:53:00,35.0,35.0,30.01,South,183,1.0,5.0,100,0.00,,,1.89,,2013-01-16 09:53:00,
2013-01-16 05:02:00,36.0,36.0,30.00,ESE,120,0.0,1.0,100,0.00,,,1.87,,2013-01-16 10:02:00,
2013-01-16 05:12:00,36.0,36.0,30.00,ESE,120,0.0,1.0,100,0.00,,,1.87,,2013-01-16 10:12:00,
2013-01-16 05:22:00,36.0,36.0,30.00,South,175,0.0,3.0,100,0.00,,,1.86,,2013-01-16 10:22:00,
2013-01-16 05:32:00,36.0,36.0,29.99,South,171,2.0,2.0,100,0.00,,,1.85,,2013-01-16 10:32:00,
2013-01-16 05:42:00,36.0,36.0,29.99,South,171,2.0,2.0,100,0.00,,,1.85,,2013-01-16 10:42:00,
2013-01-16 05:53:00,36.0,36.0,29.99,South,171,2.0,2.0,100,0.00,,,1.85,,2013-01-16 10:53:00,
2013-01-16 06:02:00,36.0,36.0,29.99,SE,130,0.0,2.0,99,0.00,,,1.82,,2013-01-16 11:02:00,
2013-01-16 06:12:00,36.0,36.0,29.99,SE,130,0.0,2.0,99,0.00,,,1.82,,2013-01-16 11:12:00,
2013-01-16 06:23:00,36.0,36.0,29.98,SSE,150,0.0,1.0,99,0.00,,,1.81,,2013-01-16 11:23:00,
2013-01-16 06:33:00,36.0,36.0,29.98,SSE,163,3.0,3.0,99,0.01,,,1.80,,2013-01-16 11:33:00,
2013-01-16 06:42:00,36.0,36.0,29.98,SSE,163,3.0,3.0,99,0.01,,,1.80,,2013-01-16 11:42:00,
2013-01-16 06:53:00,36.0,36.0,29.98,South,181,1.0,2.0,99,0.03,,,1.80,,2013-01-16 11:53:00,
2013-01-16 07:03:00,36.0,36.0,29.99,South,169,0.0,2.0,100,0.04,,,1.80,,2013-01-16 12:03:00,
2013-01-16 07:13:00,36.0,36.0,29.99,South,169,0.0,2.0,100,0.04,,,1.80,,2013-01-16 12:13:00,
2013-01-16 07:22:00,36.0,36.0,29.99,South,171,1.0,5.0,99,0.07,,,1.82,,2013-01-16 12:22:00,
2013-01-16 07:33:00,36.0,36.0,29.99,South,171,3.0,8.0,100,0.07,,,1.81,,2013-01-16 12:33:00,
2013-01-16 07:43:00,36.0,36.0,29.99,South,171,3.0,8.0,100,0.07,,,1.81,,2013-01-16 12:43:00,
2013-01-16 07:53:00,36.0,36.0,29.99,South,177,0.0,7.0,100,0.08,,,1.82,,2013-01-16 12:53:00,
2013-01-16 08:03:00,36.0,36.0,30.01,South,183,0.0,1.0,100,0.09,,,1.82,,2013-01-16 13:03:00,
2013-01-16 08:12:00,36.0,36.0,30.01,South,183,0.0,1.0,100,0.09,,,1.82,,2013-01-16 13:12:00,
2013-01-16 08:23:00,36.0,36.0,30.00,SE,132,0.0,3.0,100,0.06,,,1.81,,2013-01-16 13:23:00,
2013-01-16 08:33:00,36.0,36.0,30.02,SSE,166,3.0,5.0,99,0.05,,,1.79,,2013-01-16 13:33:00,
2013-01-16 08:43:00,36.0,36.0,30.02,SSE,166,3.0,5.0,99,0.05,,,1.79,,2013-01-16 13:43:00,
2013-01-16 08:53:00,36.0,36.0,30.01,East,92,2.0,3.0,100,0.03,,,1.78,,2013-01-16 13:53:00,
2013-01-16 09:03:00,36.0,36.0,30.03,North,357,0.0,3.0,100,0.04,,,1.81,,2013-01-16 14:03:00,
2013-01-16 09:12:00,36.0,36.0,30.03,North,357,0.0,3.0,100,0.04,,,1.81,,2013-01-16 14:12:00,
2013-01-16 09:23:00,36.0,36.0,30.02,ENE,78,0.0,2.0,100,0.12,,,1.88,,2013-01-16 14:23:00,
2013-01-16 09:33:00,37.0,37.0,30.04,NNW,343,0.0,2.0,100,0.13,,,1.88,,2013-01-16 14:33:00,
2013-01-16 09:43:00,37.0,37.0,30.04,NNW,343,0.0,2.0,100,0.13,,,1.88,,2013-01-16 14:43:00,
2013-01-16 09:53:00,37.0,37.0,30.03,SE,134,0.0,6.0,100,0.14,,,1.87,,2013-01-16 14:53:00,
2013-01-16 10:03:00,37.0,37.0,30.02,ESE,121,1.0,3.0,100,0.11,,,1.85,,2013-01-16 15:03:00,
2013-01-16 10:12:00,37.0,37.0,30.02,ESE,121,1.0,3.0,100,0.11,,,1.85,,2013-01-16 15:12:00,
2013-01-16 10:23:00,37.0,37.0,30.04,North,0,0.0,2.0,100,0.04,,,1.86,,2013-01-16 15:23:00,
2013-01-16 10:33:00,38.0,38.0,30.04,East,91,1.0,3.0,100,0.03,,,1.86,,2013-01-16 15:33:00,
2013-01-16 10:43:00,38.0,38.0,30.04,East,91,1.0,3.0,100,0.03,,,1.86,,2013-01-16 15:43:00,
2013-01-16 10:53:00,38.0,38.0,30.04,SE,139,0.0,2.0,99,0.01,,,1.85,,2013-01-16 15:53:00,
2013-01-16 11:03:00,38.0,38.0,30.03,SSE,166,3.0,7.0,99,0.01,,,1.84,,2013-01-16 16:03:00,
2013-01-16 11:12:00,38.0,38.0,30.03,SSE,166,3.0,7.0,99,0.01,,,1.84,,2013-01-16 16:12:00,
2013-01-16 11:22:00,38.0,38.0,30.01,South,180,5.0,7.0,99,0.00,,,1.84,,2013-01-16 16:22:00,
2013-01-16 11:33:00,38.0,38.0,30.00,SSE,164,6.0,8.0,99,0.00,,,1.83,,2013-01-16 16:33:00,
2013-01-16 11:42:00,38.0,38.0,30.00,SSE,164,6.0,8.0,99,0.00,,,1.83,,2013-01-16 16:42:00,
2013-01-16 11:53:00,38.0,38.0,29.97,SSW,198,1.0,6.0,99,0.00,,,1.82,,2013-01-16 16:53:00,
2013-01-16 12:03:00,39.0,39.0,29.96,SSE,163,2.0,6.0,99,0.00,,,1.82,,2013-01-16 17:03:00,
2013-01-16 12:12:00,39.0,39.0,29.96,SSE,163,2.0,6.0,99,0.00,,,1.82,,2013-01-16 17:12:00,
2013-01-16 12:23:00,39.0,39.0,29.95,SSE,158,2.0,5.0,99,0.00,,,1.80,,2013-01-16 17:23:00,
2013-01-16 12:33:00,39.0,39.0,29.95,SSE,158,2.0,5.0,99,0.00,,,1.80,,2013-01-16 17:33:00,
2013-01-16 12:43:00,39.0,39.0,29.95,SSE,158,2.0,5.0,99,0.00,,,1.80,,2013-01-16 17:43:00,
2013-01-16 12:53:00,39.0,39.0,29.94,SSE,150,5.0,8.0,99,0.00,,,1.77,,2013-01-16 17:53:00,
2013-01-16 13:03:00,39.0,39.0,29.93,SSE,161,5.0,8.0,99,0.00,,,1.75,,2013-01-16 18:03:00,
2013-01-16 13:13:00,40.0,40.0,29.93,SW,220,0.0,5.0,99,0.00,,,1.73,,2013-01-16 18:13:00,
2013-01-16 13:23:00,40.0,40.0,29.93,SW,220,0.0,5.0,99,0.00,,,1.73,,2013-01-16 18:23:00,
2013-01-16 13:33:00,41.0,41.0,29.92,NE,53,1.0,3.0,99,0.00,,,1.71,,2013-01-16 18:33:00,
2013-01-16 13:42:00,41.0,41.0,29.92,NE,53,1.0,3.0,99,0.00,,,1.71,,2013-01-16 18:42:00,
2013-01-16 13:53:00,41.0,41.0,29.91,ENE,68,0.0,3.0,99,0.00,,,1.69,,2013-01-16 18:53:00,
2013-01-16 14:03:00,41.0,41.0,29.90,NE,49,0.0,1.0,99,0.00,,,1.68,,2013-01-16 19:03:00,
2013-01-16 14:12:00,41.0,41.0,29.90,NE,49,0.0,1.0,99,0.00,,,1.68,,2013-01-16 19:12:00,
2013-01-16 14:23:00,42.0,42.0,29.91,NE,49,0.0,0.0,99,0.00,,,1.65,,2013-01-16 19:23:00,
2013-01-16 14:33:00,42.0,42.0,29.92,NE,48,1.0,2.0,99,0.00,,,1.62,,2013-01-16 19:33:00,
2013-01-16 14:43:00,42.0,42.0,29.92,NE,48,1.0,2.0,99,0.00,,,1.62,,2013-01-16 19:43:00,
2013-01-16 14:53:00,42.0,42.0,29.93,NE,45,1.0,3.0,99,0.00,,,1.60,,2013-01-16 19:53:00,
2013-01-16 15:03:00,43.0,43.0,29.93,NE,49,0.0,2.0,99,0.00,,,1.57,,2013-01-16 20:03:00,
2013-01-16 15:12:00,43.0,43.0,29.93,NE,49,0.0,2.0,99,0.00,,,1.57,,2013-01-16 20:12:00,
2013-01-16 15:23:00,44.0,43.0,29.93,South,179,0.0,3.0,97,0.00,,,1.55,,2013-01-16 20:23:00,
2013-01-16 15:33:00,45.0,44.0,29.93,SSE,156,1.0,3.0,97,0.00,,,1.52,,2013-01-16 20:33:00,
2013-01-16 15:43:00,45.0,44.0,29.93,SSE,156,1.0,3.0,97,0.00,,,1.52,,2013-01-16 20:43:00,
2013-01-16 15:53:00,45.0,44.0,29.93,SSE,151,3.0,6.0,97,0.00,,,1.49,,2013-01-16 20:53:00,
2013-01-16 16:03:00,46.0,45.0,29.92,SSE,156,3.0,7.0,96,0.00,,,1.46,,2013-01-16 21:03:00,
2013-01-16 16:12:00,46.0,45.0,29.92,SSE,156,3.0,7.0,96,0.00,,,1.46,,2013-01-16 21:12:00,
2013-01-16 16:22:00,45.0,44.0,29.92,SSE,163,3.0,7.0,96,0.00,,,1.42,,2013-01-16 21:22:00,
2013-01-16 16:33:00,45.0,44.0,29.92,South,175,3.0,6.0,96,0.00,,,1.38,,2013-01-16 21:33:00,
2013-01-16 16:43:00,45.0,44.0,29.92,South,175,3.0,6.0,96,0.00,,,1.38,,2013-01-16 21:43:00,
2013-01-16 16:53:00,45.0,44.0,29.91,SW,232,1.0,7.0,97,0.00,,,1.36,,2013-01-16 21:53:00,
2013-01-16 17:03:00,45.0,44.0,29.91,SSE,162,2.0,7.0,97,0.00,,,1.31,,2013-01-16 22:03:00,
2013-01-16 17:12:00,45.0,44.0,29.91,SSE,162,2.0,7.0,97,0.00,,,1.31,,2013-01-16 22:12:00,
2013-01-16 17:23:00,45.0,44.0,29.92,ENE,57,3.0,5.0,97,0.00,,,1.28,,2013-01-16 22:23:00,
2013-01-16 17:33:00,45.0,44.0,29.93,ENE,67,2.0,7.0,97,0.00,,,1.23,,2013-01-16 22:33:00,
2013-01-16 17:43:00,45.0,44.0,29.93,ENE,67,2.0,7.0,97,0.00,,,1.23,,2013-01-16 22:43:00,
2013-01-16 17:53:00,44.0,43.0,29.93,East,86,2.0,7.0,97,0.00,,,1.19,,2013-01-16 22:53:00,
2013-01-16 18:03:00,44.0,43.0,29.94,ENE,61,1.0,5.0,98,0.00,,,1.15,,2013-01-16 23:03:00,
2013-01-16 18:12:00,44.0,43.0,29.94,NNE,23,1.0,5.0,98,0.00,,,1.10,,2013-01-16 23:12:00,
2013-01-16 18:23:00,44.0,43.0,29.94,NNE,23,1.0,5.0,98,0.00,,,1.10,,2013-01-16 23:23:00,
2013-01-16 18:32:00,44.0,43.0,29.94,NNE,23,1.0,5.0,98,0.00,,,1.10,,2013-01-16 23:32:00,
2013-01-16 18:42:00,44.0,43.0,29.94,NNE,23,1.0,5.0,98,0.00,,,1.10,,2013-01-16 23:42:00,
2013-01-16 18:53:00,43.0,42.0,29.95,NNW,330,1.0,5.0,98,0.00,,,1.04,,2013-01-16 23:53:00,
2013-01-16 19:02:00,43.0,42.0,29.96,WNW,287,0.0,5.0,98,0.00,,,1.02,,2013-01-17 00:02:00,
2013-01-16 19:12:00,43.0,42.0,29.96,WNW,287,0.0,5.0,98,0.00,,,1.02,,2013-01-17 00:12:00,
2013-01-16 19:22:00,44.0,43.0,29.97,ESE,121,0.0,2.0,98,0.00,,,0.99,,2013-01-17 00:22:00,
2013-01-16 19:32:00,44.0,43.0,29.97,NE,37,0.0,1.0,98,0.00,,,0.95,,2013-01-17 00:32:00,
2013-01-16 19:42:00,44.0,43.0,29.97,NE,37,0.0,1.0,98,0.00,,,0.95,,2013-01-17 00:42:00,
2013-01-16 19:52:00,44.0,44.0,29.98,NE,48,0.0,2.0,99,0.00,,,0.90,,2013-01-17 00:52:00,
2013-01-16 20:02:00,44.0,44.0,29.98,ENE,78,2.0,3.0,99,0.00,,,0.80,,2013-01-17 01:02:00,
2013-01-16 20:12:00,44.0,44.0,29.98,ENE,78,2.0,3.0,99,0.00,,,0.80,,2013-01-17 01:12:00,
2013-01-16 20:22:00,44.0,44.0,29.98,South,178,0.0,1.0,99,0.00,,,0.73,,2013-01-17 01:22:00,
2013-01-16 20:33:00,44.0,44.0,29.98,ENE,77,1.0,3.0,99,0.00,,,0.69,,2013-01-17 01:33:00,
2013-01-16 20:42:00,44.0,44.0,29.98,ENE,77,1.0,3.0,99,0.00,,,0.69,,2013-01-17 01:42:00,
2013-01-16 20:52:00,44.0,44.0,29.98,ENE,74,3.0,5.0,99,0.00,,,0.66,,2013-01-17 01:52:00,
2013-01-16 21:02:00,44.0,44.0,29.98,ENE,74,3.0,5.0,99,0.00,,,0.66,,2013-01-17 02:02:00,
2013-01-16 21:12:00,44.0,44.0,29.98,ENE,74,3.0,5.0,99,0.00,,,0.66,,2013-01-17 02:12:00,
2013-01-16 21:22:00,44.0,44.0,29.97,ENE,61,2.0,5.0,99,0.00,,,0.58,,2013-01-17 02:22:00,
2013-01-16 21:32:00,44.0,44.0,29.98,NNE,27,0.0,2.0,100,0.00,,,0.52,,2013-01-17 02:32:00,
2013-01-16 21:43:00,44.0,44.0,29.98,NNE,27,0.0,2.0,100,0.00,,,0.52,,2013-01-17 02:43:00,
2013-01-16 21:52:00,44.0,44.0,29.98,NNE,27,0.0,2.0,100,0.00,,,0.52,,2013-01-17 02:52:00,
2013-01-16 22:03:00,44.0,44.0,29.98,ENE,63,1.0,6.0,100,0.00,,,0.50,,2013-01-17 03:03:00,
2013-01-16 22:12:00,44.0,44.0,29.98,ENE,63,1.0,6.0,100,0.00,,,0.50,,2013-01-17 03:12:00,
2013-01-16 22:22:00,44.0,44.0,29.97,NE,43,1.0,5.0,100,0.00,,,0.50,,2013-01-17 03:22:00,
2013-01-16 22:32:00,44.0,44.0,29.97,ENE,65,2.0,6.0,100,0.00,,,0.48,,2013-01-17 03:32:00,
2013-01-16 22:42:00,44.0,44.0,29.97,ENE,65,2.0,6.0,100,0.00,,,0.48,,2013-01-17 03:42:00,
2013-01-16 22:53:00,44.0,44.0,29.96,ENE,63,1.0,3.0,100,0.00,,,0.47,,2013-01-17 03:53:00,
2013-01-16 23:02:00,44.0,44.0,29.96,ENE,60,5.0,9.0,99,0.00,,,0.46,,2013-01-17 04:02:00,
2013-01-16 23:12:00,45.0,45.0,29.96,NE,52,0.0,7.0,99,0.00,,,0.45,,2013-01-17 04:12:00,
2013-01-16 23:22:00,45.0,45.0,29.96,NE,52,0.0,7.0,99,0.00,,,0.45,,2013-01-17 04:22:00,
2013-01-16 23:32:00,45.0,45.0,29.98,NNE,21,1.0,8.0,99,0.00,,,0.44,,2013-01-17 04:32:00,
2013-01-16 23:42:00,45.0,45.0,29.98,NNE,21,1.0,8.0,99,0.00,,,0.44,,2013-01-17 04:42:00,
2013-01-16 23:52:00,44.0,43.0,29.98,ENE,72,2.0,8.0,98,0.01,,,0.43,,2013-01-17 04:52:00,